sensor_id;sensor_type;location;lat;lon;timestamp;P1;durP1;ratioP1;P2;durP2;ratioP2
351;SDS011;164;50.784;6.496;2022-10-30T00:00:59;10.05;;;5.38;;
351;SDS011;164;50.784;6.496;2022-10-30T00:03:26;8.45;;;4.90;;
351;SDS011;164;50.784;6.496;2022-10-30T00:05:53;4.55;;;4.03;;
351;SDS011;164;50.784;6.496;2022-10-30T00:08:20;6.57;;;4.55;;
351;SDS011;164;50.784;6.496;2022-10-30T00:10:49;9.52;;;3.90;;
351;SDS011;164;50.784;6.496;2022-10-30T00:13:18;8.95;;;4.20;;
351;SDS011;164;50.784;6.496;2022-10-30T00:15:46;7.53;;;3.75;;
351;SDS011;164;50.784;6.496;2022-10-30T00:18:15;10.00;;;4.72;;
351;SDS011;164;50.784;6.496;2022-10-30T00:20:42;5.75;;;4.38;;
351;SDS011;164;50.784;6.496;2022-10-30T00:23:09;10.63;;;5.82;;
351;SDS011;164;50.784;6.496;2022-10-30T00:25:35;9.93;;;4.88;;
351;SDS011;164;50.784;6.496;2022-10-30T00:28:03;5.68;;;4.72;;
351;SDS011;164;50.784;6.496;2022-10-30T00:30:31;5.43;;;4.35;;
351;SDS011;164;50.784;6.496;2022-10-30T00:32:59;12.23;;;4.60;;
351;SDS011;164;50.784;6.496;2022-10-30T00:35:26;9.55;;;5.35;;
351;SDS011;164;50.784;6.496;2022-10-30T00:37:53;8.70;;;4.30;;
351;SDS011;164;50.784;6.496;2022-10-30T00:40:19;9.45;;;4.43;;
351;SDS011;164;50.784;6.496;2022-10-30T00:42:47;7.65;;;4.28;;
351;SDS011;164;50.784;6.496;2022-10-30T00:45:14;7.15;;;4.68;;
351;SDS011;164;50.784;6.496;2022-10-30T00:47:44;8.07;;;4.75;;
351;SDS011;164;50.784;6.496;2022-10-30T00:50:17;8.40;;;4.25;;
351;SDS011;164;50.784;6.496;2022-10-30T00:52:47;7.22;;;4.75;;
351;SDS011;164;50.784;6.496;2022-10-30T00:55:20;6.72;;;4.38;;
351;SDS011;164;50.784;6.496;2022-10-30T00:57:51;7.18;;;4.55;;
351;SDS011;164;50.784;6.496;2022-10-30T01:00:20;6.95;;;4.10;;
351;SDS011;164;50.784;6.496;2022-10-30T01:02:50;5.70;;;5.20;;
351;SDS011;164;50.784;6.496;2022-10-30T01:05:18;6.20;;;3.95;;
351;SDS011;164;50.784;6.496;2022-10-30T01:07:48;8.73;;;4.43;;
351;SDS011;164;50.784;6.496;2022-10-30T01:10:15;4.72;;;3.63;;
351;SDS011;164;50.784;6.496;2022-10-30T01:12:43;10.88;;;4.30;;
351;SDS011;164;50.784;6.496;2022-10-30T01:15:11;5.40;;;4.30;;
351;SDS011;164;50.784;6.496;2022-10-30T01:21:00;9.63;;;4.90;;
351;SDS011;164;50.784;6.496;2022-10-30T01:23:39;9.38;;;4.35;;
351;SDS011;164;50.784;6.496;2022-10-30T01:26:14;9.98;;;4.32;;
351;SDS011;164;50.784;6.496;2022-10-30T01:28:54;6.38;;;4.65;;
351;SDS011;164;50.784;6.496;2022-10-30T01:31:43;7.22;;;4.60;;
351;SDS011;164;50.784;6.496;2022-10-30T01:34:19;9.23;;;4.72;;
351;SDS011;164;50.784;6.496;2022-10-30T01:36:51;5.45;;;4.35;;
351;SDS011;164;50.784;6.496;2022-10-30T01:39:25;7.55;;;4.72;;
351;SDS011;164;50.784;6.496;2022-10-30T01:41:56;7.25;;;4.95;;
351;SDS011;164;50.784;6.496;2022-10-30T01:44:24;7.72;;;4.50;;
351;SDS011;164;50.784;6.496;2022-10-30T01:47:03;6.00;;;4.53;;
351;SDS011;164;50.784;6.496;2022-10-30T01:49:56;8.77;;;4.43;;
351;SDS011;164;50.784;6.496;2022-10-30T01:52:34;9.00;;;5.20;;
351;SDS011;164;50.784;6.496;2022-10-30T01:55:09;6.93;;;4.72;;
351;SDS011;164;50.784;6.496;2022-10-30T01:57:47;7.35;;;4.60;;
351;SDS011;164;50.784;6.496;2022-10-30T02:00:20;8.50;;;4.65;;
351;SDS011;164;50.784;6.496;2022-10-30T02:02:48;6.50;;;3.85;;
351;SDS011;164;50.784;6.496;2022-10-30T02:05:19;9.20;;;4.75;;
351;SDS011;164;50.784;6.496;2022-10-30T02:07:53;8.20;;;5.00;;
351;SDS011;164;50.784;6.496;2022-10-30T02:10:20;9.45;;;5.40;;
351;SDS011;164;50.784;6.496;2022-10-30T02:12:47;5.97;;;4.50;;
351;SDS011;164;50.784;6.496;2022-10-30T02:15:14;10.25;;;5.45;;
351;SDS011;164;50.784;6.496;2022-10-30T02:17:41;18.52;;;5.30;;
351;SDS011;164;50.784;6.496;2022-10-30T02:20:14;11.13;;;5.13;;
351;SDS011;164;50.784;6.496;2022-10-30T02:22:41;8.20;;;4.20;;
351;SDS011;164;50.784;6.496;2022-10-30T02:25:08;9.82;;;5.20;;
351;SDS011;164;50.784;6.496;2022-10-30T02:27:36;6.82;;;4.65;;
351;SDS011;164;50.784;6.496;2022-10-30T02:30:03;10.50;;;5.70;;
351;SDS011;164;50.784;6.496;2022-10-30T02:32:30;12.93;;;5.45;;
351;SDS011;164;50.784;6.496;2022-10-30T02:34:57;7.97;;;4.22;;
351;SDS011;164;50.784;6.496;2022-10-30T02:37:26;6.65;;;4.18;;
351;SDS011;164;50.784;6.496;2022-10-30T02:39:53;12.00;;;5.15;;
351;SDS011;164;50.784;6.496;2022-10-30T02:42:20;6.45;;;4.60;;
351;SDS011;164;50.784;6.496;2022-10-30T02:44:47;11.18;;;5.20;;
351;SDS011;164;50.784;6.496;2022-10-30T02:47:15;5.18;;;4.50;;
351;SDS011;164;50.784;6.496;2022-10-30T02:49:42;9.82;;;5.07;;
351;SDS011;164;50.784;6.496;2022-10-30T02:52:08;5.93;;;4.15;;
351;SDS011;164;50.784;6.496;2022-10-30T02:54:37;7.03;;;4.55;;
351;SDS011;164;50.784;6.496;2022-10-30T02:57:03;7.53;;;4.20;;
351;SDS011;164;50.784;6.496;2022-10-30T02:59:30;5.22;;;4.45;;
351;SDS011;164;50.784;6.496;2022-10-30T03:01:57;18.27;;;6.22;;
351;SDS011;164;50.784;6.496;2022-10-30T03:04:24;9.02;;;6.07;;
351;SDS011;164;50.784;6.496;2022-10-30T03:06:51;8.10;;;4.28;;
351;SDS011;164;50.784;6.496;2022-10-30T03:09:18;10.15;;;5.68;;
351;SDS011;164;50.784;6.496;2022-10-30T03:11:47;7.97;;;4.57;;
351;SDS011;164;50.784;6.496;2022-10-30T03:14:14;6.68;;;4.40;;
351;SDS011;164;50.784;6.496;2022-10-30T03:16:41;6.63;;;4.57;;
351;SDS011;164;50.784;6.496;2022-10-30T03:19:07;9.73;;;4.55;;
351;SDS011;164;50.784;6.496;2022-10-30T03:21:35;7.47;;;4.60;;
351;SDS011;164;50.784;6.496;2022-10-30T03:24:02;7.40;;;4.90;;
351;SDS011;164;50.784;6.496;2022-10-30T03:26:29;6.50;;;5.22;;
351;SDS011;164;50.784;6.496;2022-10-30T03:28:57;6.50;;;4.50;;
351;SDS011;164;50.784;6.496;2022-10-30T03:31:24;11.07;;;5.10;;
351;SDS011;164;50.784;6.496;2022-10-30T03:33:51;9.73;;;5.57;;
351;SDS011;164;50.784;6.496;2022-10-30T03:36:18;10.13;;;5.35;;
351;SDS011;164;50.784;6.496;2022-10-30T03:38:45;8.00;;;4.82;;
351;SDS011;164;50.784;6.496;2022-10-30T03:41:12;11.27;;;5.30;;
351;SDS011;164;50.784;6.496;2022-10-30T03:43:39;9.40;;;4.95;;
351;SDS011;164;50.784;6.496;2022-10-30T03:46:07;9.57;;;5.43;;
351;SDS011;164;50.784;6.496;2022-10-30T03:48:35;9.30;;;5.00;;
351;SDS011;164;50.784;6.496;2022-10-30T03:51:02;5.97;;;4.55;;
351;SDS011;164;50.784;6.496;2022-10-30T03:53:29;8.45;;;5.82;;
351;SDS011;164;50.784;6.496;2022-10-30T03:55:56;8.25;;;5.68;;
351;SDS011;164;50.784;6.496;2022-10-30T03:58:24;8.38;;;4.95;;
351;SDS011;164;50.784;6.496;2022-10-30T04:00:52;6.85;;;5.25;;
351;SDS011;164;50.784;6.496;2022-10-30T04:03:20;9.60;;;4.97;;
351;SDS011;164;50.784;6.496;2022-10-30T04:05:47;12.88;;;5.85;;
351;SDS011;164;50.784;6.496;2022-10-30T04:08:18;10.55;;;5.65;;
351;SDS011;164;50.784;6.496;2022-10-30T04:10:45;10.13;;;5.32;;
351;SDS011;164;50.784;6.496;2022-10-30T04:13:13;9.65;;;6.80;;
351;SDS011;164;50.784;6.496;2022-10-30T04:15:41;10.10;;;5.70;;
351;SDS011;164;50.784;6.496;2022-10-30T04:18:09;6.47;;;5.10;;
351;SDS011;164;50.784;6.496;2022-10-30T04:20:38;9.05;;;6.00;;
351;SDS011;164;50.784;6.496;2022-10-30T04:23:05;7.07;;;6.38;;
351;SDS011;164;50.784;6.496;2022-10-30T04:25:35;8.10;;;5.35;;
351;SDS011;164;50.784;6.496;2022-10-30T04:28:02;9.20;;;5.72;;
351;SDS011;164;50.784;6.496;2022-10-30T04:30:29;7.22;;;5.18;;
351;SDS011;164;50.784;6.496;2022-10-30T04:32:59;7.15;;;4.93;;
351;SDS011;164;50.784;6.496;2022-10-30T04:35:29;5.47;;;5.18;;
351;SDS011;164;50.784;6.496;2022-10-30T04:37:59;8.93;;;5.45;;
351;SDS011;164;50.784;6.496;2022-10-30T04:40:28;6.05;;;5.05;;
351;SDS011;164;50.784;6.496;2022-10-30T04:42:56;9.85;;;5.38;;
351;SDS011;164;50.784;6.496;2022-10-30T04:45:24;7.75;;;5.65;;
351;SDS011;164;50.784;6.496;2022-10-30T04:47:51;7.53;;;5.47;;
351;SDS011;164;50.784;6.496;2022-10-30T04:50:18;10.95;;;6.18;;
351;SDS011;164;50.784;6.496;2022-10-30T04:52:45;7.57;;;5.88;;
351;SDS011;164;50.784;6.496;2022-10-30T04:55:14;7.65;;;5.68;;
351;SDS011;164;50.784;6.496;2022-10-30T04:57:41;10.50;;;5.85;;
351;SDS011;164;50.784;6.496;2022-10-30T05:00:09;5.93;;;5.20;;
351;SDS011;164;50.784;6.496;2022-10-30T05:02:37;8.57;;;5.63;;
351;SDS011;164;50.784;6.496;2022-10-30T05:05:04;7.68;;;5.32;;
351;SDS011;164;50.784;6.496;2022-10-30T05:07:31;8.75;;;5.68;;
351;SDS011;164;50.784;6.496;2022-10-30T05:09:58;9.70;;;6.05;;
351;SDS011;164;50.784;6.496;2022-10-30T05:12:27;9.80;;;5.65;;
351;SDS011;164;50.784;6.496;2022-10-30T05:14:53;13.48;;;5.32;;
351;SDS011;164;50.784;6.496;2022-10-30T05:17:20;7.43;;;5.72;;
351;SDS011;164;50.784;6.496;2022-10-30T05:19:47;10.07;;;6.78;;
351;SDS011;164;50.784;6.496;2022-10-30T05:22:14;8.18;;;5.25;;
351;SDS011;164;50.784;6.496;2022-10-30T05:24:41;6.35;;;4.95;;
351;SDS011;164;50.784;6.496;2022-10-30T05:27:08;7.50;;;4.85;;
351;SDS011;164;50.784;6.496;2022-10-30T05:29:37;10.35;;;6.25;;
351;SDS011;164;50.784;6.496;2022-10-30T05:32:04;7.78;;;5.30;;
351;SDS011;164;50.784;6.496;2022-10-30T05:34:31;6.22;;;4.60;;
351;SDS011;164;50.784;6.496;2022-10-30T05:36:57;12.38;;;5.68;;
351;SDS011;164;50.784;6.496;2022-10-30T05:39:25;12.35;;;6.13;;
351;SDS011;164;50.784;6.496;2022-10-30T05:41:52;10.85;;;5.97;;
351;SDS011;164;50.784;6.496;2022-10-30T05:44:19;7.50;;;4.90;;
351;SDS011;164;50.784;6.496;2022-10-30T05:46:47;8.13;;;5.70;;
351;SDS011;164;50.784;6.496;2022-10-30T05:49:14;7.20;;;5.47;;
351;SDS011;164;50.784;6.496;2022-10-30T05:51:42;7.63;;;6.20;;
351;SDS011;164;50.784;6.496;2022-10-30T05:54:09;7.40;;;6.13;;
351;SDS011;164;50.784;6.496;2022-10-30T05:56:36;8.20;;;5.50;;
351;SDS011;164;50.784;6.496;2022-10-30T05:59:03;9.60;;;6.28;;
351;SDS011;164;50.784;6.496;2022-10-30T06:01:29;12.50;;;5.15;;
351;SDS011;164;50.784;6.496;2022-10-30T06:03:58;8.43;;;5.72;;
351;SDS011;164;50.784;6.496;2022-10-30T06:06:25;8.05;;;5.68;;
351;SDS011;164;50.784;6.496;2022-10-30T06:08:52;6.50;;;5.47;;
351;SDS011;164;50.784;6.496;2022-10-30T06:11:18;9.10;;;6.32;;
351;SDS011;164;50.784;6.496;2022-10-30T06:13:46;5.72;;;5.43;;
351;SDS011;164;50.784;6.496;2022-10-30T06:16:13;9.52;;;6.05;;
351;SDS011;164;50.784;6.496;2022-10-30T06:18:40;7.28;;;6.10;;
351;SDS011;164;50.784;6.496;2022-10-30T06:21:08;6.15;;;5.82;;
351;SDS011;164;50.784;6.496;2022-10-30T06:23:35;10.38;;;5.72;;
351;SDS011;164;50.784;6.496;2022-10-30T06:26:02;8.60;;;5.25;;
351;SDS011;164;50.784;6.496;2022-10-30T06:28:29;7.43;;;5.28;;
351;SDS011;164;50.784;6.496;2022-10-30T06:30:56;7.82;;;5.65;;
351;SDS011;164;50.784;6.496;2022-10-30T06:33:23;15.52;;;6.60;;
351;SDS011;164;50.784;6.496;2022-10-30T06:35:50;8.48;;;6.22;;
351;SDS011;164;50.784;6.496;2022-10-30T06:38:18;8.52;;;5.72;;
351;SDS011;164;50.784;6.496;2022-10-30T06:40:46;12.48;;;6.90;;
351;SDS011;164;50.784;6.496;2022-10-30T06:43:13;6.13;;;5.43;;
351;SDS011;164;50.784;6.496;2022-10-30T06:45:41;10.38;;;6.35;;
351;SDS011;164;50.784;6.496;2022-10-30T06:48:07;8.93;;;6.07;;
351;SDS011;164;50.784;6.496;2022-10-30T06:50:35;8.48;;;5.82;;
351;SDS011;164;50.784;6.496;2022-10-30T06:53:01;7.72;;;6.10;;
351;SDS011;164;50.784;6.496;2022-10-30T06:55:30;7.90;;;5.88;;
351;SDS011;164;50.784;6.496;2022-10-30T06:57:57;9.90;;;6.78;;
351;SDS011;164;50.784;6.496;2022-10-30T07:00:24;9.45;;;5.68;;
351;SDS011;164;50.784;6.496;2022-10-30T07:02:54;8.98;;;6.22;;
351;SDS011;164;50.784;6.496;2022-10-30T07:05:23;9.88;;;6.55;;
351;SDS011;164;50.784;6.496;2022-10-30T07:07:50;8.20;;;5.50;;
351;SDS011;164;50.784;6.496;2022-10-30T07:10:17;7.47;;;5.60;;
351;SDS011;164;50.784;6.496;2022-10-30T07:12:51;8.30;;;6.38;;
351;SDS011;164;50.784;6.496;2022-10-30T07:15:19;8.32;;;5.03;;
351;SDS011;164;50.784;6.496;2022-10-30T07:17:50;6.07;;;5.07;;
351;SDS011;164;50.784;6.496;2022-10-30T07:20:19;13.02;;;5.60;;
351;SDS011;164;50.784;6.496;2022-10-30T07:22:46;10.23;;;5.70;;
351;SDS011;164;50.784;6.496;2022-10-30T07:25:13;9.80;;;6.47;;
351;SDS011;164;50.784;6.496;2022-10-30T07:27:41;10.52;;;5.95;;
351;SDS011;164;50.784;6.496;2022-10-30T07:30:10;6.30;;;5.47;;
351;SDS011;164;50.784;6.496;2022-10-30T07:32:38;13.63;;;7.35;;
351;SDS011;164;50.784;6.496;2022-10-30T07:35:05;8.75;;;6.05;;
351;SDS011;164;50.784;6.496;2022-10-30T07:37:33;9.38;;;6.13;;
351;SDS011;164;50.784;6.496;2022-10-30T07:40:00;9.57;;;4.95;;
351;SDS011;164;50.784;6.496;2022-10-30T07:42:27;7.63;;;5.05;;
351;SDS011;164;50.784;6.496;2022-10-30T07:44:54;5.57;;;5.13;;
351;SDS011;164;50.784;6.496;2022-10-30T07:47:22;6.50;;;6.10;;
351;SDS011;164;50.784;6.496;2022-10-30T07:49:49;10.75;;;9.60;;
351;SDS011;164;50.784;6.496;2022-10-30T07:52:16;8.82;;;7.38;;
351;SDS011;164;50.784;6.496;2022-10-30T07:54:43;10.48;;;6.45;;
351;SDS011;164;50.784;6.496;2022-10-30T07:57:10;8.50;;;5.72;;
351;SDS011;164;50.784;6.496;2022-10-30T07:59:37;7.22;;;4.90;;
351;SDS011;164;50.784;6.496;2022-10-30T08:02:04;9.18;;;5.78;;
351;SDS011;164;50.784;6.496;2022-10-30T08:04:32;7.10;;;5.90;;
351;SDS011;164;50.784;6.496;2022-10-30T08:07:00;5.93;;;5.35;;
351;SDS011;164;50.784;6.496;2022-10-30T08:09:26;8.18;;;6.10;;
351;SDS011;164;50.784;6.496;2022-10-30T08:11:53;7.85;;;5.35;;
351;SDS011;164;50.784;6.496;2022-10-30T08:14:20;5.93;;;5.32;;
351;SDS011;164;50.784;6.496;2022-10-30T08:16:47;7.10;;;4.93;;
351;SDS011;164;50.784;6.496;2022-10-30T08:19:15;11.77;;;4.38;;
351;SDS011;164;50.784;6.496;2022-10-30T08:21:45;7.65;;;4.60;;
351;SDS011;164;50.784;6.496;2022-10-30T08:24:12;10.90;;;5.38;;
351;SDS011;164;50.784;6.496;2022-10-30T08:26:39;5.65;;;4.43;;
351;SDS011;164;50.784;6.496;2022-10-30T08:29:06;6.13;;;4.65;;
351;SDS011;164;50.784;6.496;2022-10-30T08:31:33;8.77;;;5.45;;
351;SDS011;164;50.784;6.496;2022-10-30T08:34:00;9.45;;;5.40;;
351;SDS011;164;50.784;6.496;2022-10-30T08:36:28;5.80;;;4.88;;
351;SDS011;164;50.784;6.496;2022-10-30T08:38:56;11.38;;;6.18;;
351;SDS011;164;50.784;6.496;2022-10-30T08:41:24;11.18;;;6.03;;
351;SDS011;164;50.784;6.496;2022-10-30T08:43:50;8.05;;;6.45;;
351;SDS011;164;50.784;6.496;2022-10-30T08:46:17;10.43;;;5.45;;
351;SDS011;164;50.784;6.496;2022-10-30T08:48:44;8.52;;;5.00;;
351;SDS011;164;50.784;6.496;2022-10-30T08:51:12;7.90;;;4.65;;
351;SDS011;164;50.784;6.496;2022-10-30T08:53:38;6.22;;;4.68;;
351;SDS011;164;50.784;6.496;2022-10-30T08:56:07;6.80;;;4.60;;
351;SDS011;164;50.784;6.496;2022-10-30T08:58:34;6.45;;;5.25;;
351;SDS011;164;50.784;6.496;2022-10-30T09:01:01;5.60;;;4.40;;
351;SDS011;164;50.784;6.496;2022-10-30T09:03:28;7.15;;;5.10;;
351;SDS011;164;50.784;6.496;2022-10-30T09:05:56;9.70;;;5.80;;
351;SDS011;164;50.784;6.496;2022-10-30T09:08:25;9.50;;;4.78;;
351;SDS011;164;50.784;6.496;2022-10-30T09:10:53;7.78;;;4.75;;
351;SDS011;164;50.784;6.496;2022-10-30T09:13:22;12.32;;;4.57;;
351;SDS011;164;50.784;6.496;2022-10-30T09:15:49;9.77;;;4.22;;
351;SDS011;164;50.784;6.496;2022-10-30T09:18:16;6.63;;;5.10;;
351;SDS011;164;50.784;6.496;2022-10-30T09:20:43;6.55;;;5.05;;
351;SDS011;164;50.784;6.496;2022-10-30T09:23:10;6.95;;;4.43;;
351;SDS011;164;50.784;6.496;2022-10-30T09:25:37;7.30;;;3.80;;
351;SDS011;164;50.784;6.496;2022-10-30T09:28:04;10.25;;;5.00;;
351;SDS011;164;50.784;6.496;2022-10-30T09:30:32;6.43;;;3.95;;
351;SDS011;164;50.784;6.496;2022-10-30T09:33:07;9.00;;;4.85;;
351;SDS011;164;50.784;6.496;2022-10-30T09:35:34;7.07;;;4.30;;
351;SDS011;164;50.784;6.496;2022-10-30T09:38:01;5.32;;;3.90;;
351;SDS011;164;50.784;6.496;2022-10-30T09:40:32;8.73;;;4.00;;
351;SDS011;164;50.784;6.496;2022-10-30T09:43:08;6.30;;;4.97;;
351;SDS011;164;50.784;6.496;2022-10-30T09:45:50;7.28;;;5.22;;
351;SDS011;164;50.784;6.496;2022-10-30T09:48:34;7.20;;;4.38;;
351;SDS011;164;50.784;6.496;2022-10-30T09:51:30;8.35;;;4.70;;
351;SDS011;164;50.784;6.496;2022-10-30T09:54:11;9.48;;;4.80;;
351;SDS011;164;50.784;6.496;2022-10-30T09:56:43;8.25;;;4.97;;
351;SDS011;164;50.784;6.496;2022-10-30T09:59:16;11.90;;;5.50;;
351;SDS011;164;50.784;6.496;2022-10-30T10:01:57;6.38;;;4.60;;
351;SDS011;164;50.784;6.496;2022-10-30T10:04:31;6.75;;;4.43;;
351;SDS011;164;50.784;6.496;2022-10-30T10:07:06;9.68;;;4.55;;
351;SDS011;164;50.784;6.496;2022-10-30T10:09:40;6.65;;;5.28;;
351;SDS011;164;50.784;6.496;2022-10-30T10:12:10;5.15;;;4.28;;
351;SDS011;164;50.784;6.496;2022-10-30T10:14:44;7.88;;;4.68;;
351;SDS011;164;50.784;6.496;2022-10-30T10:17:17;6.20;;;4.45;;
351;SDS011;164;50.784;6.496;2022-10-30T10:19:51;9.30;;;5.32;;
351;SDS011;164;50.784;6.496;2022-10-30T10:22:25;7.00;;;4.22;;
351;SDS011;164;50.784;6.496;2022-10-30T10:24:55;8.13;;;4.20;;
351;SDS011;164;50.784;6.496;2022-10-30T10:27:25;7.80;;;4.78;;
351;SDS011;164;50.784;6.496;2022-10-30T10:30:04;9.68;;;5.10;;
351;SDS011;164;50.784;6.496;2022-10-30T10:32:48;7.07;;;5.20;;
351;SDS011;164;50.784;6.496;2022-10-30T10:35:36;11.13;;;5.43;;
351;SDS011;164;50.784;6.496;2022-10-30T10:38:33;9.43;;;4.30;;
351;SDS011;164;50.784;6.496;2022-10-30T10:41:16;10.23;;;4.40;;
351;SDS011;164;50.784;6.496;2022-10-30T10:43:57;6.18;;;4.80;;
351;SDS011;164;50.784;6.496;2022-10-30T10:46:36;7.20;;;4.30;;
351;SDS011;164;50.784;6.496;2022-10-30T10:49:18;6.00;;;4.32;;
351;SDS011;164;50.784;6.496;2022-10-30T10:51:53;6.30;;;4.63;;
351;SDS011;164;50.784;6.496;2022-10-30T10:54:23;9.40;;;5.10;;
351;SDS011;164;50.784;6.496;2022-10-30T10:56:54;8.68;;;5.13;;
351;SDS011;164;50.784;6.496;2022-10-30T10:59:25;11.88;;;6.25;;
351;SDS011;164;50.784;6.496;2022-10-30T11:01:59;7.60;;;5.03;;
351;SDS011;164;50.784;6.496;2022-10-30T11:04:56;8.20;;;5.07;;
351;SDS011;164;50.784;6.496;2022-10-30T11:07:29;8.15;;;4.97;;
351;SDS011;164;50.784;6.496;2022-10-30T11:09:57;9.85;;;5.07;;
351;SDS011;164;50.784;6.496;2022-10-30T11:12:26;8.88;;;4.90;;
351;SDS011;164;50.784;6.496;2022-10-30T11:14:56;9.00;;;5.15;;
351;SDS011;164;50.784;6.496;2022-10-30T11:17:24;9.65;;;5.45;;
351;SDS011;164;50.784;6.496;2022-10-30T11:19:59;9.05;;;5.07;;
351;SDS011;164;50.784;6.496;2022-10-30T11:22:37;10.73;;;5.20;;
351;SDS011;164;50.784;6.496;2022-10-30T11:25:17;7.15;;;4.63;;
351;SDS011;164;50.784;6.496;2022-10-30T11:27:46;12.30;;;4.93;;
351;SDS011;164;50.784;6.496;2022-10-30T11:30:18;8.60;;;4.75;;
351;SDS011;164;50.784;6.496;2022-10-30T11:32:46;6.85;;;5.25;;
351;SDS011;164;50.784;6.496;2022-10-30T11:35:15;9.45;;;4.75;;
351;SDS011;164;50.784;6.496;2022-10-30T11:37:44;13.20;;;5.50;;
351;SDS011;164;50.784;6.496;2022-10-30T11:40:16;6.82;;;4.63;;
351;SDS011;164;50.784;6.496;2022-10-30T11:42:46;7.32;;;5.47;;
351;SDS011;164;50.784;6.496;2022-10-30T11:45:15;5.57;;;4.35;;
351;SDS011;164;50.784;6.496;2022-10-30T11:47:45;10.43;;;4.90;;
351;SDS011;164;50.784;6.496;2022-10-30T11:50:18;6.22;;;5.65;;
351;SDS011;164;50.784;6.496;2022-10-30T11:52:47;7.50;;;4.93;;
351;SDS011;164;50.784;6.496;2022-10-30T11:55:18;8.45;;;5.25;;
351;SDS011;164;50.784;6.496;2022-10-30T11:57:49;7.57;;;5.18;;
351;SDS011;164;50.784;6.496;2022-10-30T12:00:18;10.55;;;5.85;;
351;SDS011;164;50.784;6.496;2022-10-30T12:02:48;9.60;;;4.85;;
351;SDS011;164;50.784;6.496;2022-10-30T12:05:31;9.07;;;4.90;;
351;SDS011;164;50.784;6.496;2022-10-30T12:10:56;7.10;;;4.93;;
351;SDS011;164;50.784;6.496;2022-10-30T12:13:26;5.35;;;4.50;;
351;SDS011;164;50.784;6.496;2022-10-30T12:16:05;7.35;;;5.47;;
351;SDS011;164;50.784;6.496;2022-10-30T12:18:36;7.05;;;4.68;;
351;SDS011;164;50.784;6.496;2022-10-30T12:21:06;6.20;;;4.88;;
351;SDS011;164;50.784;6.496;2022-10-30T12:23:33;6.28;;;4.53;;
351;SDS011;164;50.784;6.496;2022-10-30T12:26:01;7.57;;;4.75;;
351;SDS011;164;50.784;6.496;2022-10-30T12:28:35;7.05;;;4.30;;
351;SDS011;164;50.784;6.496;2022-10-30T12:31:04;5.75;;;4.78;;
351;SDS011;164;50.784;6.496;2022-10-30T12:33:37;7.93;;;4.90;;
351;SDS011;164;50.784;6.496;2022-10-30T12:36:11;6.60;;;4.40;;
351;SDS011;164;50.784;6.496;2022-10-30T12:38:42;7.70;;;4.20;;
351;SDS011;164;50.784;6.496;2022-10-30T12:41:13;7.28;;;4.28;;
351;SDS011;164;50.784;6.496;2022-10-30T12:43:47;7.40;;;4.55;;
351;SDS011;164;50.784;6.496;2022-10-30T12:46:24;9.30;;;5.10;;
351;SDS011;164;50.784;6.496;2022-10-30T12:49:01;8.48;;;4.75;;
351;SDS011;164;50.784;6.496;2022-10-30T12:51:37;7.57;;;4.22;;
351;SDS011;164;50.784;6.496;2022-10-30T12:54:11;4.00;;;3.20;;
351;SDS011;164;50.784;6.496;2022-10-30T12:56:43;7.55;;;2.83;;
351;SDS011;164;50.784;6.496;2022-10-30T12:59:19;8.05;;;3.58;;
351;SDS011;164;50.784;6.496;2022-10-30T13:01:55;6.20;;;2.90;;
351;SDS011;164;50.784;6.496;2022-10-30T13:04:26;3.60;;;2.65;;
351;SDS011;164;50.784;6.496;2022-10-30T13:07:02;4.30;;;2.60;;
351;SDS011;164;50.784;6.496;2022-10-30T13:09:36;6.35;;;2.72;;
351;SDS011;164;50.784;6.496;2022-10-30T13:12:07;4.05;;;2.83;;
351;SDS011;164;50.784;6.496;2022-10-30T13:14:39;4.18;;;3.00;;
351;SDS011;164;50.784;6.496;2022-10-30T13:17:09;4.75;;;2.20;;
351;SDS011;164;50.784;6.496;2022-10-30T13:19:38;4.93;;;2.50;;
351;SDS011;164;50.784;6.496;2022-10-30T13:22:11;6.47;;;3.30;;
351;SDS011;164;50.784;6.496;2022-10-30T13:24:45;6.30;;;3.03;;
351;SDS011;164;50.784;6.496;2022-10-30T13:27:18;6.10;;;2.88;;
351;SDS011;164;50.784;6.496;2022-10-30T13:29:53;6.13;;;3.03;;
351;SDS011;164;50.784;6.496;2022-10-30T13:32:35;6.45;;;3.25;;
351;SDS011;164;50.784;6.496;2022-10-30T13:35:16;7.35;;;2.85;;
351;SDS011;164;50.784;6.496;2022-10-30T13:37:55;3.67;;;2.63;;
351;SDS011;164;50.784;6.496;2022-10-30T13:40:27;4.53;;;2.47;;
351;SDS011;164;50.784;6.496;2022-10-30T13:43:02;6.50;;;2.78;;
351;SDS011;164;50.784;6.496;2022-10-30T13:45:53;3.10;;;2.85;;
351;SDS011;164;50.784;6.496;2022-10-30T13:48:37;6.07;;;2.60;;
351;SDS011;164;50.784;6.496;2022-10-30T13:51:26;4.30;;;2.95;;
351;SDS011;164;50.784;6.496;2022-10-30T13:54:06;4.30;;;2.80;;
351;SDS011;164;50.784;6.496;2022-10-30T13:56:38;5.57;;;2.63;;
351;SDS011;164;50.784;6.496;2022-10-30T13:59:11;5.53;;;3.30;;
351;SDS011;164;50.784;6.496;2022-10-30T14:01:50;5.70;;;2.78;;
351;SDS011;164;50.784;6.496;2022-10-30T14:04:25;6.90;;;3.50;;
351;SDS011;164;50.784;6.496;2022-10-30T14:06:59;5.35;;;3.05;;
351;SDS011;164;50.784;6.496;2022-10-30T14:09:44;5.30;;;2.33;;
351;SDS011;164;50.784;6.496;2022-10-30T14:15:30;2.38;;;2.17;;
351;SDS011;164;50.784;6.496;2022-10-30T14:20:52;3.90;;;2.83;;
351;SDS011;164;50.784;6.496;2022-10-30T14:23:21;4.47;;;2.92;;
351;SDS011;164;50.784;6.496;2022-10-30T14:28:47;4.97;;;2.55;;
351;SDS011;164;50.784;6.496;2022-10-30T14:31:16;4.80;;;2.30;;
351;SDS011;164;50.784;6.496;2022-10-30T14:33:46;3.22;;;2.38;;
351;SDS011;164;50.784;6.496;2022-10-30T14:36:19;2.63;;;2.05;;
351;SDS011;164;50.784;6.496;2022-10-30T14:38:51;6.97;;;3.30;;
351;SDS011;164;50.784;6.496;2022-10-30T14:41:36;4.70;;;2.60;;
351;SDS011;164;50.784;6.496;2022-10-30T14:44:23;5.72;;;2.90;;
351;SDS011;164;50.784;6.496;2022-10-30T14:47:19;5.75;;;2.63;;
351;SDS011;164;50.784;6.496;2022-10-30T14:50:31;4.38;;;2.50;;
351;SDS011;164;50.784;6.496;2022-10-30T14:53:20;4.05;;;2.65;;
351;SDS011;164;50.784;6.496;2022-10-30T14:56:06;6.15;;;2.58;;
351;SDS011;164;50.784;6.496;2022-10-30T14:58:43;4.28;;;2.30;;
351;SDS011;164;50.784;6.496;2022-10-30T15:01:32;8.10;;;3.33;;
351;SDS011;164;50.784;6.496;2022-10-30T15:04:10;5.43;;;4.03;;
351;SDS011;164;50.784;6.496;2022-10-30T15:06:49;4.95;;;3.67;;
351;SDS011;164;50.784;6.496;2022-10-30T15:09:30;4.97;;;3.50;;
351;SDS011;164;50.784;6.496;2022-10-30T15:12:11;7.47;;;4.00;;
351;SDS011;164;50.784;6.496;2022-10-30T15:14:51;7.32;;;3.30;;
351;SDS011;164;50.784;6.496;2022-10-30T15:17:23;5.60;;;3.40;;
351;SDS011;164;50.784;6.496;2022-10-30T15:19:56;6.50;;;3.55;;
351;SDS011;164;50.784;6.496;2022-10-30T15:22:26;7.50;;;3.67;;
351;SDS011;164;50.784;6.496;2022-10-30T15:24:55;9.07;;;4.78;;
351;SDS011;164;50.784;6.496;2022-10-30T15:27:23;7.28;;;4.43;;
351;SDS011;164;50.784;6.496;2022-10-30T15:29:53;7.72;;;3.97;;
351;SDS011;164;50.784;6.496;2022-10-30T15:32:22;7.90;;;3.85;;
351;SDS011;164;50.784;6.496;2022-10-30T15:34:54;6.30;;;3.03;;
351;SDS011;164;50.784;6.496;2022-10-30T15:37:24;8.27;;;4.25;;
351;SDS011;164;50.784;6.496;2022-10-30T15:42:35;8.00;;;3.60;;
351;SDS011;164;50.784;6.496;2022-10-30T15:45:07;6.10;;;3.65;;
351;SDS011;164;50.784;6.496;2022-10-30T15:47:43;5.00;;;3.63;;
351;SDS011;164;50.784;6.496;2022-10-30T15:50:13;7.07;;;4.20;;
351;SDS011;164;50.784;6.496;2022-10-30T15:52:41;9.98;;;4.28;;
351;SDS011;164;50.784;6.496;2022-10-30T15:55:11;14.65;;;5.38;;
351;SDS011;164;50.784;6.496;2022-10-30T15:57:40;8.02;;;3.75;;
351;SDS011;164;50.784;6.496;2022-10-30T16:00:19;7.95;;;4.85;;
351;SDS011;164;50.784;6.496;2022-10-30T16:02:48;8.10;;;3.42;;
351;SDS011;164;50.784;6.496;2022-10-30T16:05:24;3.67;;;3.50;;
351;SDS011;164;50.784;6.496;2022-10-30T16:07:53;6.68;;;3.90;;
351;SDS011;164;50.784;6.496;2022-10-30T16:10:21;5.22;;;3.97;;
351;SDS011;164;50.784;6.496;2022-10-30T16:12:48;11.85;;;5.22;;
351;SDS011;164;50.784;6.496;2022-10-30T16:15:23;8.38;;;4.80;;
351;SDS011;164;50.784;6.496;2022-10-30T16:18:06;14.80;;;5.60;;
351;SDS011;164;50.784;6.496;2022-10-30T16:20:41;9.43;;;5.57;;
351;SDS011;164;50.784;6.496;2022-10-30T16:23:09;8.88;;;4.82;;